Time;durP1;ratioP1;P1;durP2;ratioP2;P2;SDS_P1;SDS_P2;PMS_P1;PMS_P2;Temp;Humidity;BMP_temperature;BMP_pressure;BME280_temperature;BME280_humidity;BME280_pressure;Samples;Min_cycle;Max_cycle;Signal;HPM_P1;HPM_P2
2023/06/25 00:02:18;;;;;;;7.70;3.20;;;;;;;;;;5061234;28;20043;-63
2023/06/25 00:04:46;;;;;;;5.20;2.45;;;;;;;;;;5050603;28;20492;-63
2023/06/25 00:07:16;;;;;;;5.15;2.20;;;;;;;;;;5054731;28;20028;-63
2023/06/25 00:09:54;;;;;;;5.47;2.80;;;;;;;;;;5061230;28;20076;-63
2023/06/25 00:12:22;;;;;;;6.90;2.80;;;;;;;;;;5045374;28;20662;-64
2023/06/25 00:14:50;;;;;;;5.30;2.77;;;;;;;;;;5066821;28;20040;-64
2023/06/25 00:17:19;;;;;;;6.43;2.65;;;;;;;;;;5056220;28;20466;-63
2023/06/25 00:19:47;;;;;;;5.60;2.47;;;;;;;;;;5056093;28;20045;-63
2023/06/25 00:22:16;;;;;;;5.30;2.35;;;;;;;;;;5048776;28;20043;-63
2023/06/25 00:24:43;;;;;;;6.07;2.28;;;;;;;;;;5068822;28;20032;-63
2023/06/25 00:27:12;;;;;;;5.43;2.50;;;;;;;;;;5049925;28;20498;-65
2023/06/25 00:29:41;;;;;;;6.13;2.78;;;;;;;;;;5059165;28;20123;-64
2023/06/25 00:32:10;;;;;;;6.88;2.55;;;;;;;;;;5059453;28;20044;-64
2023/06/25 00:34:41;;;;;;;4.88;2.13;;;;;;;;;;5041062;28;20047;-64
2023/06/25 00:37:16;;;;;;;5.75;2.33;;;;;;;;;;5052128;28;20406;-63
2023/06/25 00:39:44;;;;;;;4.70;2.07;;;;;;;;;;5036068;28;20348;-64
2023/06/25 00:42:13;;;;;;;5.53;2.17;;;;;;;;;;5064221;28;20040;-64
2023/06/25 00:44:42;;;;;;;6.15;2.17;;;;;;;;;;5053954;28;20040;-63
2023/06/25 00:47:12;;;;;;;5.22;2.20;;;;;;;;;;5068002;28;20048;-64
2023/06/25 00:49:45;;;;;;;5.68;2.50;;;;;;;;;;5054442;28;20039;-58
2023/06/25 00:52:14;;;;;;;6.67;2.10;;;;;;;;;;5046943;28;20075;-64
2023/06/25 00:54:42;;;;;;;4.97;1.90;;;;;;;;;;5058422;28;20043;-63
2023/06/25 00:57:11;;;;;;;6.18;2.55;;;;;;;;;;5044002;28;20107;-63
2023/06/25 00:59:41;;;;;;;5.05;2.20;;;;;;;;;;5043960;28;20648;-63
2023/06/25 01:02:16;;;;;;;5.63;2.38;;;;;;;;;;5055536;28;20033;-64
2023/06/25 01:04:47;;;;;;;5.30;2.40;;;;;;;;;;5043536;28;20525;-64
2023/06/25 01:07:17;;;;;;;5.10;2.30;;;;;;;;;;5045197;28;20036;-63
2023/06/25 01:09:47;;;;;;;5.88;2.20;;;;;;;;;;5069470;28;20052;-62
2023/06/25 01:12:16;;;;;;;6.07;2.50;;;;;;;;;;5046096;28;20032;-64
2023/06/25 01:14:48;;;;;;;4.63;2.10;;;;;;;;;;5052574;28;20128;-64
2023/06/25 01:17:16;;;;;;;5.90;2.20;;;;;;;;;;5049421;28;20032;-64
2023/06/25 01:19:45;;;;;;;5.25;2.00;;;;;;;;;;5051657;28;20050;-59
2023/06/25 01:22:14;;;;;;;4.50;2.17;;;;;;;;;;5043801;28;20214;-64
2023/06/25 01:24:47;;;;;;;4.43;2.15;;;;;;;;;;5061135;28;20036;-64
2023/06/25 01:27:15;;;;;;;5.55;1.70;;;;;;;;;;5034013;28;20024;-64
2023/06/25 01:29:48;;;;;;;5.43;2.07;;;;;;;;;;5066488;28;20047;-64
2023/06/25 01:32:16;;;;;;;4.55;2.28;;;;;;;;;;5059938;28;20044;-64
2023/06/25 01:34:45;;;;;;;5.55;2.40;;;;;;;;;;5027241;28;20048;-64
2023/06/25 01:37:17;;;;;;;4.85;2.10;;;;;;;;;;5052213;28;20040;-64
2023/06/25 01:39:48;;;;;;;5.82;2.55;;;;;;;;;;5028459;28;20048;-62
2023/06/25 01:42:16;;;;;;;5.13;2.00;;;;;;;;;;5063898;28;20055;-65
2023/06/25 01:44:45;;;;;;;5.13;2.10;;;;;;;;;;5056050;28;20040;-63
2023/06/25 01:47:14;;;;;;;5.70;2.13;;;;;;;;;;5034140;28;20059;-64
2023/06/25 01:49:42;;;;;;;4.60;1.67;;;;;;;;;;5061479;28;20049;-64
2023/06/25 01:52:10;;;;;;;5.68;1.73;;;;;;;;;;5047971;28;20036;-65
2023/06/25 01:54:38;;;;;;;5.00;2.17;;;;;;;;;;5042442;28;20448;-64
2023/06/25 01:57:07;;;;;;;5.00;2.10;;;;;;;;;;5054702;28;20063;-64
2023/06/25 01:59:35;;;;;;;4.97;1.98;;;;;;;;;;5044435;28;20434;-64
2023/06/25 02:02:03;;;;;;;4.60;1.92;;;;;;;;;;5059434;28;20037;-64
2023/06/25 02:04:30;;;;;;;5.93;1.95;;;;;;;;;;5058966;28;20391;-64
2023/06/25 02:06:58;;;;;;;5.23;2.30;;;;;;;;;;5055769;28;20032;-64
2023/06/25 02:09:26;;;;;;;5.03;2.10;;;;;;;;;;5049358;28;20040;-63
2023/06/25 02:11:53;;;;;;;5.13;2.08;;;;;;;;;;5058382;28;20135;-64
2023/06/25 02:14:22;;;;;;;4.85;2.22;;;;;;;;;;5046540;28;20058;-63
2023/06/25 02:16:51;;;;;;;5.03;2.05;;;;;;;;;;5046963;28;20031;-64
2023/06/25 02:19:19;;;;;;;5.30;2.20;;;;;;;;;;5053750;28;20055;-63
2023/06/25 02:21:47;;;;;;;5.00;1.98;;;;;;;;;;5049703;28;20040;-64
2023/06/25 02:24:15;;;;;;;5.13;1.80;;;;;;;;;;5049579;28;20041;-64
2023/06/25 02:26:43;;;;;;;5.57;1.70;;;;;;;;;;5046941;28;20040;-64
2023/06/25 02:29:11;;;;;;;4.50;1.60;;;;;;;;;;5054848;28;20040;-65
2023/06/25 02:31:40;;;;;;;4.47;1.90;;;;;;;;;;5047935;28;21865;-64
2023/06/25 02:34:07;;;;;;;4.95;1.67;;;;;;;;;;5060278;28;20100;-65
2023/06/25 02:36:35;;;;;;;4.47;1.60;;;;;;;;;;5041383;28;21027;-65
2023/06/25 02:39:03;;;;;;;4.43;1.83;;;;;;;;;;5033796;28;20036;-65
2023/06/25 02:41:30;;;;;;;4.18;1.67;;;;;;;;;;5041324;28;20040;-64
2023/06/25 02:43:58;;;;;;;5.50;2.23;;;;;;;;;;5021949;28;20033;-64
2023/06/25 02:46:26;;;;;;;4.30;1.83;;;;;;;;;;5047511;28;20051;-64
2023/06/25 02:48:55;;;;;;;4.50;1.73;;;;;;;;;;5056618;28;20048;-64
2023/06/25 02:51:24;;;;;;;4.80;1.70;;;;;;;;;;5047645;28;20047;-64
2023/06/25 02:53:51;;;;;;;4.72;1.92;;;;;;;;;;5046730;28;20418;-65
2023/06/25 02:56:19;;;;;;;4.20;1.50;;;;;;;;;;5042308;28;20044;-65
2023/06/25 02:58:47;;;;;;;4.35;1.85;;;;;;;;;;5066278;28;20047;-64
2023/06/25 03:01:15;;;;;;;4.47;1.80;;;;;;;;;;5033816;28;20048;-65
2023/06/25 03:03:43;;;;;;;5.25;2.00;;;;;;;;;;5054983;28;20050;-64
2023/06/25 03:06:12;;;;;;;4.82;1.75;;;;;;;;;;5037071;28;20040;-64
2023/06/25 03:08:39;;;;;;;4.17;1.50;;;;;;;;;;5055136;28;20044;-64
2023/06/25 03:11:09;;;;;;;5.28;1.80;;;;;;;;;;5059732;28;20032;-65
2023/06/25 03:13:36;;;;;;;5.35;2.20;;;;;;;;;;5052092;28;20045;-64
2023/06/25 03:16:05;;;;;;;4.32;1.83;;;;;;;;;;5046256;28;20040;-65
2023/06/25 03:18:33;;;;;;;4.85;1.88;;;;;;;;;;5054280;28;20044;-64
2023/06/25 03:21:01;;;;;;;4.60;2.07;;;;;;;;;;5056539;28;20047;-64
2023/06/25 03:23:30;;;;;;;4.50;1.60;;;;;;;;;;5031345;28;20052;-64
2023/06/25 03:25:58;;;;;;;4.47;1.73;;;;;;;;;;5054217;28;20490;-64
2023/06/25 03:28:25;;;;;;;4.22;1.48;;;;;;;;;;5047291;28;20534;-62
2023/06/25 03:30:54;;;;;;;5.53;2.20;;;;;;;;;;5023042;28;20032;-64
2023/06/25 03:33:22;;;;;;;4.60;1.77;;;;;;;;;;5050764;28;20390;-64
2023/06/25 03:35:50;;;;;;;4.47;1.95;;;;;;;;;;5052411;28;20075;-64
2023/06/25 03:38:17;;;;;;;4.68;1.73;;;;;;;;;;5058896;28;20044;-64
2023/06/25 03:40:46;;;;;;;5.25;1.52;;;;;;;;;;5047921;28;20562;-62
2023/06/25 03:43:14;;;;;;;4.63;1.65;;;;;;;;;;5058335;28;20047;-64
2023/06/25 03:45:42;;;;;;;5.40;1.87;;;;;;;;;;5050633;28;20064;-64
2023/06/25 03:48:10;;;;;;;4.90;2.00;;;;;;;;;;5057333;28;20226;-65
2023/06/25 03:50:37;;;;;;;4.80;1.77;;;;;;;;;;5026702;28;20045;-64
2023/06/25 03:53:05;;;;;;;6.65;2.20;;;;;;;;;;5068066;28;20417;-63
2023/06/25 03:55:33;;;;;;;6.15;1.90;;;;;;;;;;5082293;27;20130;-64
2023/06/25 03:58:02;;;;;;;5.13;1.90;;;;;;;;;;5049105;28;20105;-65
2023/06/25 04:00:31;;;;;;;4.85;1.80;;;;;;;;;;5067117;28;20055;-64
2023/06/25 04:03:00;;;;;;;5.13;1.60;;;;;;;;;;5058978;28;20466;-65
2023/06/25 04:05:28;;;;;;;4.90;1.65;;;;;;;;;;5053008;28;20040;-64
2023/06/25 04:07:55;;;;;;;4.70;1.67;;;;;;;;;;5058680;28;20613;-64
2023/06/25 04:10:23;;;;;;;3.90;1.23;;;;;;;;;;5059237;28;20047;-65
2023/06/25 04:12:51;;;;;;;4.72;1.80;;;;;;;;;;5061943;28;20555;-65
2023/06/25 04:15:20;;;;;;;5.13;1.95;;;;;;;;;;5057429;28;20341;-64
2023/06/25 04:17:47;;;;;;;5.00;1.77;;;;;;;;;;5049178;28;20234;-64
2023/06/25 04:20:16;;;;;;;4.55;1.77;;;;;;;;;;5046153;28;22615;-65
2023/06/25 04:22:44;;;;;;;5.17;2.00;;;;;;;;;;5059993;28;20055;-64
2023/06/25 04:25:11;;;;;;;4.53;1.77;;;;;;;;;;5053466;28;20050;-64
2023/06/25 04:27:39;;;;;;;4.50;1.90;;;;;;;;;;5046434;28;20044;-63
2023/06/25 04:30:07;;;;;;;4.43;1.70;;;;;;;;;;5053271;28;20036;-64
2023/06/25 04:32:36;;;;;;;5.30;2.00;;;;;;;;;;5052840;28;20055;-64
2023/06/25 04:35:04;;;;;;;5.63;1.77;;;;;;;;;;5040464;28;20623;-64
2023/06/25 04:37:32;;;;;;;4.80;1.98;;;;;;;;;;5052016;28;20033;-64
2023/06/25 04:40:00;;;;;;;5.78;2.10;;;;;;;;;;5044512;28;20525;-64
2023/06/25 04:42:28;;;;;;;6.78;2.50;;;;;;;;;;5084996;27;20339;-65
2023/06/25 04:44:56;;;;;;;6.22;2.20;;;;;;;;;;5047305;28;20040;-65
2023/06/25 04:47:23;;;;;;;4.97;1.80;;;;;;;;;;5054201;28;20040;-64
2023/06/25 04:49:52;;;;;;;4.97;2.08;;;;;;;;;;5060567;28;20123;-64
2023/06/25 04:52:20;;;;;;;5.75;2.13;;;;;;;;;;5048545;28;20529;-64
2023/06/25 04:54:48;;;;;;;5.20;2.03;;;;;;;;;;5051002;28;20044;-66
2023/06/25 04:57:16;;;;;;;4.85;1.75;;;;;;;;;;5050472;28;20044;-67
2023/06/25 04:59:43;;;;;;;5.77;2.10;;;;;;;;;;5051806;28;20040;-66
2023/06/25 05:02:11;;;;;;;5.22;1.98;;;;;;;;;;5044767;28;20068;-66
2023/06/25 05:04:41;;;;;;;5.80;2.15;;;;;;;;;;5065258;28;20048;-66
2023/06/25 05:07:14;;;;;;;5.35;1.98;;;;;;;;;;5051090;28;20036;-66
2023/06/25 05:09:43;;;;;;;5.72;2.00;;;;;;;;;;5043530;28;20028;-67
2023/06/25 05:12:11;;;;;;;6.37;2.73;;;;;;;;;;5059769;28;20040;-66
2023/06/25 05:14:39;;;;;;;6.13;2.55;;;;;;;;;;5054586;28;20063;-66
2023/06/25 05:17:06;;;;;;;5.05;2.05;;;;;;;;;;5053036;28;20055;-67
2023/06/25 05:19:34;;;;;;;4.32;1.67;;;;;;;;;;5054699;28;20039;-67
2023/06/25 05:22:02;;;;;;;5.78;2.13;;;;;;;;;;5056248;28;20338;-67
2023/06/25 05:24:31;;;;;;;4.97;2.23;;;;;;;;;;5037215;28;20509;-67
2023/06/25 05:26:59;;;;;;;5.22;2.33;;;;;;;;;;5058704;28;20040;-67
2023/06/25 05:29:27;;;;;;;5.15;2.58;;;;;;;;;;5052827;28;20040;-66
2023/06/25 05:31:55;;;;;;;6.88;2.28;;;;;;;;;;5062172;28;20052;-66
2023/06/25 05:34:23;;;;;;;6.78;2.63;;;;;;;;;;5047504;28;20051;-66
2023/06/25 05:36:52;;;;;;;6.13;2.27;;;;;;;;;;5065157;28;20040;-67
2023/06/25 05:39:20;;;;;;;5.75;2.33;;;;;;;;;;5047333;28;20059;-66
2023/06/25 05:41:49;;;;;;;6.35;2.70;;;;;;;;;;5057108;28;20059;-66
2023/06/25 05:44:17;;;;;;;7.72;2.25;;;;;;;;;;5043128;28;20067;-67
2023/06/25 05:46:45;;;;;;;5.13;2.40;;;;;;;;;;5047433;28;20051;-61
2023/06/25 05:49:12;;;;;;;6.17;2.40;;;;;;;;;;5048028;28;20044;-66
2023/06/25 05:51:40;;;;;;;6.38;2.70;;;;;;;;;;5054486;28;20036;-66
2023/06/25 05:54:09;;;;;;;6.20;2.30;;;;;;;;;;5048282;28;25566;-66
2023/06/25 05:56:37;;;;;;;7.50;2.60;;;;;;;;;;5054562;28;20066;-66
2023/06/25 05:59:06;;;;;;;6.35;2.97;;;;;;;;;;5044195;28;20043;-66
2023/06/25 06:01:38;;;;;;;6.83;2.37;;;;;;;;;;5046002;28;20422;-65
2023/06/25 06:04:06;;;;;;;5.65;2.60;;;;;;;;;;5058327;28;20044;-66
2023/06/25 06:06:34;;;;;;;6.32;2.60;;;;;;;;;;5041953;28;20048;-66
2023/06/25 06:09:01;;;;;;;6.82;2.70;;;;;;;;;;5054716;28;20040;-66
2023/06/25 06:11:29;;;;;;;5.00;2.22;;;;;;;;;;5052685;28;20036;-66
2023/06/25 06:13:57;;;;;;;6.57;3.27;;;;;;;;;;5059609;28;20036;-66
2023/06/25 06:16:26;;;;;;;5.85;2.95;;;;;;;;;;5044058;28;20039;-66
2023/06/25 06:18:54;;;;;;;8.52;3.00;;;;;;;;;;5054262;28;20040;-66
2023/06/25 06:21:21;;;;;;;7.50;2.88;;;;;;;;;;5047739;28;20472;-66
2023/06/25 06:23:49;;;;;;;7.07;2.65;;;;;;;;;;5055438;28;20076;-65
2023/06/25 06:26:17;;;;;;;6.10;2.80;;;;;;;;;;5038095;28;20044;-66
2023/06/25 06:28:45;;;;;;;6.20;2.95;;;;;;;;;;5051905;28;20047;-61
2023/06/25 06:31:12;;;;;;;7.43;2.90;;;;;;;;;;5041660;28;20047;-66
2023/06/25 06:33:43;;;;;;;7.40;2.83;;;;;;;;;;5047276;28;20092;-66
2023/06/25 06:36:10;;;;;;;6.25;2.97;;;;;;;;;;5060704;28;20040;-66
2023/06/25 06:38:44;;;;;;;6.23;3.33;;;;;;;;;;5033088;28;20037;-67
2023/06/25 06:41:12;;;;;;;6.93;3.20;;;;;;;;;;5055537;28;20545;-66
2023/06/25 06:43:47;;;;;;;7.20;3.20;;;;;;;;;;5041116;28;20047;-67
2023/06/25 06:46:14;;;;;;;5.95;2.80;;;;;;;;;;5057925;28;20552;-67
2023/06/25 06:48:44;;;;;;;6.85;3.30;;;;;;;;;;5035520;28;20518;-66
2023/06/25 06:51:11;;;;;;;10.97;3.63;;;;;;;;;;5057705;28;20052;-67
2023/06/25 06:53:39;;;;;;;6.53;3.13;;;;;;;;;;5050575;28;20044;-65
2023/06/25 06:56:06;;;;;;;6.35;3.40;;;;;;;;;;5059028;28;20067;-66
2023/06/25 06:58:34;;;;;;;6.93;3.30;;;;;;;;;;5044411;28;20048;-65
2023/06/25 07:01:02;;;;;;;7.55;3.75;;;;;;;;;;5065624;28;20216;-65
2023/06/25 07:03:30;;;;;;;6.30;3.17;;;;;;;;;;5038509;28;20726;-66
2023/06/25 07:05:59;;;;;;;7.40;3.10;;;;;;;;;;5058352;28;20296;-68
2023/06/25 07:08:27;;;;;;;6.20;3.28;;;;;;;;;;5047740;28;20458;-66
2023/06/25 07:10:54;;;;;;;7.80;3.55;;;;;;;;;;5056734;28;20056;-66
2023/06/25 07:13:22;;;;;;;7.70;3.30;;;;;;;;;;5041993;28;20036;-66
2023/06/25 07:15:50;;;;;;;6.47;3.17;;;;;;;;;;5059296;28;20032;-67
2023/06/25 07:18:17;;;;;;;6.93;3.47;;;;;;;;;;5050123;28;20040;-65
2023/06/25 07:20:46;;;;;;;7.10;3.70;;;;;;;;;;5051669;28;20063;-63
2023/06/25 07:23:17;;;;;;;6.50;3.45;;;;;;;;;;5051152;28;20051;-65
2023/06/25 07:25:45;;;;;;;9.93;4.30;;;;;;;;;;5043511;28;20471;-64
2023/06/25 07:28:13;;;;;;;8.27;3.60;;;;;;;;;;5059445;28;20535;-65
2023/06/25 07:30:41;;;;;;;6.93;3.92;;;;;;;;;;5039419;28;24295;-64
2023/06/25 07:33:09;;;;;;;6.80;3.83;;;;;;;;;;5066514;28;20494;-65
2023/06/25 07:35:37;;;;;;;6.90;4.10;;;;;;;;;;5050750;28;20044;-65
2023/06/25 07:38:05;;;;;;;7.90;3.75;;;;;;;;;;5050648;28;20050;-65
2023/06/25 07:40:34;;;;;;;10.03;3.97;;;;;;;;;;5046256;28;21303;-65
2023/06/25 07:43:02;;;;;;;6.65;3.00;;;;;;;;;;5042193;28;20045;-65
2023/06/25 07:45:30;;;;;;;7.72;3.40;;;;;;;;;;5039170;28;20044;-65
2023/06/25 07:47:58;;;;;;;7.53;3.65;;;;;;;;;;5050372;28;20047;-66
2023/06/25 07:50:27;;;;;;;7.10;3.80;;;;;;;;;;5040137;28;20893;-65
2023/06/25 07:52:55;;;;;;;7.80;4.00;;;;;;;;;;5057604;28;20068;-67
2023/06/25 07:55:23;;;;;;;8.25;3.90;;;;;;;;;;5045785;28;20391;-67
2023/06/25 07:57:52;;;;;;;7.80;4.10;;;;;;;;;;5050229;28;20059;-66
2023/06/25 08:00:20;;;;;;;7.43;3.97;;;;;;;;;;5033127;28;20059;-66
2023/06/25 08:02:49;;;;;;;10.77;4.57;;;;;;;;;;5052146;28;20048;-66
2023/06/25 08:05:19;;;;;;;7.63;3.70;;;;;;;;;;5054345;28;20063;-66
2023/06/25 08:07:47;;;;;;;8.43;3.80;;;;;;;;;;5057834;28;20048;-66
2023/06/25 08:10:15;;;;;;;8.13;3.88;;;;;;;;;;5058070;28;20055;-67
2023/06/25 08:12:43;;;;;;;9.38;4.47;;;;;;;;;;5043724;28;20037;-67
2023/06/25 08:15:12;;;;;;;8.02;4.30;;;;;;;;;;5047718;28;20036;-66
2023/06/25 08:17:39;;;;;;;7.73;4.47;;;;;;;;;;5043408;28;20040;-67
2023/06/25 08:20:07;;;;;;;7.80;4.63;;;;;;;;;;5054080;28;20879;-67
2023/06/25 08:22:35;;;;;;;7.75;3.90;;;;;;;;;;5046229;28;20353;-67
2023/06/25 08:25:06;;;;;;;7.45;3.35;;;;;;;;;;5050066;28;20033;-67
2023/06/25 08:27:36;;;;;;;7.45;3.85;;;;;;;;;;5053721;28;20047;-68
2023/06/25 08:30:05;;;;;;;8.23;4.40;;;;;;;;;;5046653;28;20251;-67
2023/06/25 08:32:38;;;;;;;8.68;4.43;;;;;;;;;;5044917;28;20044;-67
2023/06/25 08:35:06;;;;;;;8.02;4.35;;;;;;;;;;5057601;28;20028;-65
2023/06/25 08:37:34;;;;;;;8.60;3.80;;;;;;;;;;5038447;28;20048;-69
2023/06/25 08:40:04;;;;;;;5.30;2.40;;;;;;;;;;5068412;28;20044;-67
2023/06/25 08:42:32;;;;;;;8.23;3.73;;;;;;;;;;5051884;28;20044;-67
2023/06/25 08:45:00;;;;;;;6.60;2.88;;;;;;;;;;5062002;28;20044;-67
2023/06/25 08:47:28;;;;;;;6.65;3.47;;;;;;;;;;5037429;28;20044;-67
2023/06/25 08:49:57;;;;;;;6.57;3.88;;;;;;;;;;5052795;28;20044;-67
2023/06/25 08:52:25;;;;;;;8.02;3.92;;;;;;;;;;5038646;28;20044;-60
2023/06/25 08:54:54;;;;;;;8.60;3.93;;;;;;;;;;5064532;28;20040;-67
2023/06/25 08:57:22;;;;;;;7.78;4.00;;;;;;;;;;5049011;28;20490;-67
2023/06/25 08:59:50;;;;;;;7.07;3.85;;;;;;;;;;5056952;28;20513;-67
2023/06/25 09:02:17;;;;;;;6.78;3.30;;;;;;;;;;5034321;28;20036;-67
2023/06/25 09:04:49;;;;;;;8.95;4.35;;;;;;;;;;5055362;28;20055;-66
2023/06/25 09:07:19;;;;;;;7.97;4.50;;;;;;;;;;5045774;28;20032;-67
2023/06/25 09:09:52;;;;;;;7.90;3.78;;;;;;;;;;5058849;28;20051;-67
2023/06/25 09:12:23;;;;;;;6.53;3.75;;;;;;;;;;5056894;28;20477;-67
2023/06/25 09:14:51;;;;;;;11.65;4.43;;;;;;;;;;5032613;28;20209;-66
2023/06/25 09:17:20;;;;;;;7.78;4.18;;;;;;;;;;5052956;28;20260;-67
2023/06/25 09:19:48;;;;;;;9.87;4.17;;;;;;;;;;5048461;28;22470;-67
2023/06/25 09:22:19;;;;;;;7.85;4.13;;;;;;;;;;5060893;28;20028;-67
2023/06/25 09:24:48;;;;;;;9.05;4.20;;;;;;;;;;5047158;28;20056;-66
2023/06/25 09:27:21;;;;;;;6.80;3.60;;;;;;;;;;5057206;28;20097;-67
2023/06/25 09:29:49;;;;;;;7.28;4.30;;;;;;;;;;5049489;28;20131;-66
2023/06/25 09:32:18;;;;;;;8.67;4.67;;;;;;;;;;5034904;28;20561;-65
2023/06/25 09:34:47;;;;;;;10.63;4.28;;;;;;;;;;5048130;28;20040;-65
2023/06/25 09:37:15;;;;;;;14.25;4.68;;;;;;;;;;5044394;28;20052;-66
2023/06/25 09:39:44;;;;;;;7.97;4.25;;;;;;;;;;5046773;28;20036;-65
2023/06/25 09:42:12;;;;;;;8.20;3.90;;;;;;;;;;5052877;28;20059;-65
2023/06/25 09:44:40;;;;;;;14.77;5.97;;;;;;;;;;5031740;28;22957;-65
2023/06/25 09:47:08;;;;;;;10.45;3.97;;;;;;;;;;5048406;28;20128;-65
2023/06/25 09:49:36;;;;;;;9.32;4.82;;;;;;;;;;5065855;28;20063;-65
2023/06/25 09:52:08;;;;;;;12.00;4.55;;;;;;;;;;5036355;28;20978;-65
2023/06/25 09:54:36;;;;;;;7.22;4.03;;;;;;;;;;5054211;28;20344;-67
2023/06/25 09:57:09;;;;;;;9.33;4.70;;;;;;;;;;5047455;28;20521;-65
2023/06/25 09:59:37;;;;;;;8.38;4.85;;;;;;;;;;5042397;28;20040;-65
2023/06/25 10:02:06;;;;;;;8.05;4.25;;;;;;;;;;5035319;28;20046;-66
2023/06/25 10:04:35;;;;;;;9.38;4.05;;;;;;;;;;5048555;28;20404;-65
2023/06/25 10:07:04;;;;;;;6.72;3.38;;;;;;;;;;5038978;28;20110;-66
2023/06/25 10:09:31;;;;;;;7.53;4.23;;;;;;;;;;5051117;28;20640;-65
2023/06/25 10:11:59;;;;;;;9.43;4.63;;;;;;;;;;5053371;28;20475;-65
2023/06/25 10:14:36;;;;;;;8.35;3.58;;;;;;;;;;5061107;28;20047;-64
2023/06/25 10:17:06;;;;;;;10.70;4.28;;;;;;;;;;5050120;28;20039;-65
2023/06/25 10:19:36;;;;;;;7.70;4.30;;;;;;;;;;5051412;28;20433;-65
2023/06/25 10:22:05;;;;;;;8.70;4.13;;;;;;;;;;5059422;28;20043;-65
2023/06/25 10:24:39;;;;;;;7.43;3.95;;;;;;;;;;5053484;28;20047;-69
2023/06/25 10:27:07;;;;;;;11.32;4.80;;;;;;;;;;5047812;28;20517;-65
2023/06/25 10:29:42;;;;;;;8.73;4.10;;;;;;;;;;5042074;28;20666;-65
2023/06/25 10:32:12;;;;;;;8.63;4.57;;;;;;;;;;5038081;28;20032;-70
2023/06/25 10:34:40;;;;;;;8.23;3.50;;;;;;;;;;5055766;28;20097;-66
2023/06/25 10:37:13;;;;;;;8.23;4.80;;;;;;;;;;5046503;28;20387;-65
2023/06/25 10:39:42;;;;;;;8.10;3.85;;;;;;;;;;5043968;28;20036;-65
2023/06/25 10:42:11;;;;;;;10.15;5.03;;;;;;;;;;5055318;28;20040;-65
2023/06/25 10:44:39;;;;;;;7.68;4.40;;;;;;;;;;5050824;28;20051;-65
2023/06/25 10:47:10;;;;;;;8.30;3.43;;;;;;;;;;5045121;28;20129;-65
2023/06/25 10:49:38;;;;;;;9.30;4.10;;;;;;;;;;5054135;28;20541;-65
2023/06/25 10:52:06;;;;;;;6.72;3.60;;;;;;;;;;5041387;28;20909;-62
2023/06/25 10:54:34;;;;;;;10.45;3.40;;;;;;;;;;5055448;28;20036;-66
2023/06/25 10:57:08;;;;;;;7.15;3.38;;;;;;;;;;5047004;28;21346;-67
2023/06/25 10:59:36;;;;;;;9.90;4.33;;;;;;;;;;5039550;28;20039;-70
2023/06/25 11:02:22;;;;;;;8.25;3.30;;;;;;;;;;4994426;28;21217;-66
2023/06/25 11:04:51;;;;;;;7.70;3.38;;;;;;;;;;5001614;28;20063;-67
2023/06/25 11:07:20;;;;;;;6.68;3.20;;;;;;;;;;5019202;28;20216;-66
2023/06/25 11:09:52;;;;;;;7.35;3.60;;;;;;;;;;5047340;28;20048;-67
2023/06/25 11:12:20;;;;;;;7.27;2.70;;;;;;;;;;5051529;28;20032;-67
2023/06/25 11:14:51;;;;;;;7.72;3.78;;;;;;;;;;5052252;28;20413;-67
2023/06/25 11:17:20;;;;;;;7.47;3.13;;;;;;;;;;5051419;28;20040;-67
2023/06/25 11:19:50;;;;;;;8.95;3.83;;;;;;;;;;5040942;28;20041;-67
2023/06/25 11:22:18;;;;;;;9.10;3.17;;;;;;;;;;5057118;28;20072;-66
2023/06/25 11:24:46;;;;;;;7.87;3.43;;;;;;;;;;5049538;28;20100;-66
2023/06/25 11:27:22;;;;;;;6.95;3.13;;;;;;;;;;5052780;28;20046;-67
2023/06/25 11:29:49;;;;;;;9.38;3.67;;;;;;;;;;5047873;28;20049;-67
2023/06/25 11:32:23;;;;;;;9.18;4.18;;;;;;;;;;5032800;28;20496;-66
2023/06/25 11:34:51;;;;;;;7.38;3.28;;;;;;;;;;5050556;28;20576;-67
2023/06/25 11:37:20;;;;;;;5.93;2.70;;;;;;;;;;5038205;28;20065;-67
2023/06/25 11:39:48;;;;;;;7.60;3.67;;;;;;;;;;5054091;28;20044;-66
2023/06/25 11:42:17;;;;;;;8.57;4.72;;;;;;;;;;5049274;28;20530;-66
2023/06/25 11:44:45;;;;;;;6.60;3.30;;;;;;;;;;5056690;28;20545;-66
2023/06/25 11:47:15;;;;;;;8.23;3.63;;;;;;;;;;5036511;28;20517;-65
2023/06/25 11:49:52;;;;;;;9.00;5.00;;;;;;;;;;5054478;28;20119;-65
2023/06/25 11:52:20;;;;;;;9.57;3.90;;;;;;;;;;5040266;28;20036;-65
2023/06/25 11:54:48;;;;;;;10.02;4.32;;;;;;;;;;5049033;28;20051;-66
2023/06/25 11:57:19;;;;;;;8.30;4.45;;;;;;;;;;5038355;28;20048;-65
2023/06/25 11:59:51;;;;;;;7.70;3.35;;;;;;;;;;5101201;27;20070;-66
2023/06/25 12:02:19;;;;;;;9.37;3.97;;;;;;;;;;5040804;28;20135;-66
2023/06/25 12:04:48;;;;;;;7.80;3.83;;;;;;;;;;5064125;28;20064;-69
2023/06/25 12:07:16;;;;;;;12.68;4.30;;;;;;;;;;5046146;28;20036;-65
2023/06/25 12:09:44;;;;;;;6.60;2.90;;;;;;;;;;5068763;28;20051;-66
2023/06/25 12:12:12;;;;;;;7.18;4.00;;;;;;;;;;5051002;28;20516;-66
2023/06/25 12:14:42;;;;;;;6.33;3.57;;;;;;;;;;5056782;28;20130;-65
2023/06/25 12:17:10;;;;;;;8.45;3.95;;;;;;;;;;5050945;28;20037;-66
2023/06/25 12:19:38;;;;;;;6.70;3.72;;;;;;;;;;5050748;28;20259;-67
2023/06/25 12:22:07;;;;;;;8.02;3.50;;;;;;;;;;5065230;28;20048;-62
2023/06/25 12:24:35;;;;;;;7.25;3.97;;;;;;;;;;5041437;28;20324;-66
2023/06/25 12:27:03;;;;;;;7.50;3.10;;;;;;;;;;5058746;28;20331;-66
2023/06/25 12:29:31;;;;;;;7.70;4.45;;;;;;;;;;5040320;28;20064;-66
2023/06/25 12:31:59;;;;;;;6.80;2.58;;;;;;;;;;5038268;28;20055;-66
2023/06/25 12:34:27;;;;;;;5.78;2.70;;;;;;;;;;5054685;28;20038;-64
2023/06/25 12:36:55;;;;;;;6.45;3.08;;;;;;;;;;5045367;28;20043;-65
2023/06/25 12:39:24;;;;;;;9.63;3.60;;;;;;;;;;5050164;28;20028;-66
2023/06/25 12:42:00;;;;;;;5.07;2.63;;;;;;;;;;5049302;28;20045;-66
2023/06/25 12:44:29;;;;;;;6.45;2.63;;;;;;;;;;5058403;28;20611;-66
2023/06/25 12:46:57;;;;;;;6.38;2.78;;;;;;;;;;5037600;28;20384;-66
2023/06/25 12:49:25;;;;;;;6.18;3.05;;;;;;;;;;5048670;28;20043;-66
2023/06/25 12:51:53;;;;;;;6.63;2.70;;;;;;;;;;5052301;28;20036;-65
2023/06/25 12:54:24;;;;;;;6.38;2.97;;;;;;;;;;5057462;28;20051;-67
2023/06/25 12:56:52;;;;;;;6.60;2.55;;;;;;;;;;5040745;28;20048;-67
2023/06/25 12:59:19;;;;;;;5.72;2.70;;;;;;;;;;5054381;28;20050;-67
2023/06/25 13:01:47;;;;;;;5.60;2.67;;;;;;;;;;5039655;28;20036;-68
2023/06/25 13:04:15;;;;;;;7.50;2.80;;;;;;;;;;5039485;28;20460;-67
2023/06/25 13:06:42;;;;;;;9.45;3.17;;;;;;;;;;5051969;28;20137;-67
2023/06/25 13:09:11;;;;;;;9.10;4.20;;;;;;;;;;5042117;28;20296;-68
2023/06/25 13:11:40;;;;;;;8.23;3.35;;;;;;;;;;5074614;27;20128;-67
2023/06/25 13:14:08;;;;;;;6.63;3.35;;;;;;;;;;5063506;28;20040;-67
2023/06/25 13:16:36;;;;;;;9.67;4.07;;;;;;;;;;5055019;28;20362;-67
2023/06/25 13:19:03;;;;;;;7.55;2.90;;;;;;;;;;5052544;28;20581;-66
2023/06/25 13:57:36;;;;;;;7.63;3.60;;;;;;;;;;5033832;27;20397;-65
2023/06/25 14:00:06;;;;;;;6.67;4.30;;;;;;;;;;5061484;28;20039;-65
2023/06/25 14:02:36;;;;;;;7.03;3.90;;;;;;;;;;5051280;28;20047;-66
2023/06/25 14:05:11;;;;;;;9.25;4.90;;;;;;;;;;5057527;28;20047;-65
2023/06/25 14:07:39;;;;;;;7.60;4.72;;;;;;;;;;5068852;28;20046;-65
2023/06/25 14:10:08;;;;;;;9.15;4.15;;;;;;;;;;5069921;28;20051;-65
2023/06/25 14:12:40;;;;;;;8.60;3.97;;;;;;;;;;5063162;28;20040;-66
2023/06/25 14:15:09;;;;;;;7.20;3.58;;;;;;;;;;5084746;28;20039;-66
2023/06/25 14:17:37;;;;;;;7.60;3.92;;;;;;;;;;5061983;28;20691;-67
2023/06/25 14:20:13;;;;;;;6.97;4.72;;;;;;;;;;5057161;28;20036;-66
2023/06/25 14:22:41;;;;;;;9.07;4.13;;;;;;;;;;5053150;28;20036;-66
2023/06/25 14:25:09;;;;;;;6.73;4.20;;;;;;;;;;5057177;28;20040;-66
2023/06/25 14:27:36;;;;;;;9.02;4.65;;;;;;;;;;5045965;28;20044;-66
2023/06/25 14:30:09;;;;;;;9.35;4.72;;;;;;;;;;5037359;28;20037;-66
2023/06/25 14:32:38;;;;;;;8.55;4.38;;;;;;;;;;5052693;28;20481;-67
2023/06/25 14:35:06;;;;;;;9.18;4.60;;;;;;;;;;5044292;28;20045;-66
2023/06/25 14:37:34;;;;;;;10.03;4.70;;;;;;;;;;5049525;28;20048;-67
2023/06/25 14:40:02;;;;;;;10.65;4.75;;;;;;;;;;5039683;28;20040;-66
2023/06/25 14:42:30;;;;;;;8.57;4.95;;;;;;;;;;5044281;28;20040;-66
2023/06/25 14:45:03;;;;;;;7.93;4.60;;;;;;;;;;5051648;28;20048;-67
2023/06/25 14:47:35;;;;;;;8.65;4.47;;;;;;;;;;5039932;28;20049;-67
2023/06/25 14:50:05;;;;;;;9.67;3.80;;;;;;;;;;5029365;28;20040;-65
2023/06/25 14:52:33;;;;;;;8.98;3.72;;;;;;;;;;5051950;28;20045;-66
2023/06/25 14:55:01;;;;;;;7.93;4.38;;;;;;;;;;5032967;28;20527;-66
2023/06/25 14:57:28;;;;;;;11.18;4.53;;;;;;;;;;5057206;28;20061;-66
2023/06/25 14:59:56;;;;;;;11.40;4.00;;;;;;;;;;5029859;28;20037;-66
2023/06/25 15:02:24;;;;;;;6.67;3.60;;;;;;;;;;5053121;28;20142;-65
2023/06/25 15:04:53;;;;;;;8.25;3.50;;;;;;;;;;5043749;28;20051;-66
2023/06/25 15:07:21;;;;;;;7.95;4.03;;;;;;;;;;5039602;28;20504;-65
2023/06/25 15:09:49;;;;;;;7.78;4.00;;;;;;;;;;5038934;28;20045;-65
2023/06/25 15:12:17;;;;;;;7.32;3.67;;;;;;;;;;5040909;28;20033;-66
2023/06/25 15:14:44;;;;;;;7.43;3.60;;;;;;;;;;5024939;28;20044;-65
2023/06/25 15:17:12;;;;;;;8.18;3.20;;;;;;;;;;5016629;28;20683;-65
2023/06/25 15:19:40;;;;;;;9.70;4.10;;;;;;;;;;5037863;28;20068;-65
2023/06/25 15:22:09;;;;;;;9.90;3.92;;;;;;;;;;5036403;28;20490;-65
2023/06/25 15:24:37;;;;;;;10.60;4.45;;;;;;;;;;5041999;28;20515;-65
2023/06/25 15:27:05;;;;;;;6.63;3.43;;;;;;;;;;5021378;28;20115;-65
2023/06/25 15:29:38;;;;;;;10.32;3.97;;;;;;;;;;5034737;28;20041;-67